sensor_id;sensor_type;location;lat;lon;timestamp;P1;durP1;ratioP1;P2;durP2;ratioP2
11143;SDS011;5626;44.730;10.276;2022-11-12T05:02:34;10.02;;;7.70;;
11143;SDS011;5626;44.730;10.276;2022-11-12T05:05:23;8.73;;;7.83;;
11143;SDS011;5626;44.730;10.276;2022-11-12T05:08:13;7.40;;;6.70;;
11143;SDS011;5626;44.730;10.276;2022-11-12T05:11:01;8.83;;;6.80;;
11143;SDS011;5626;44.730;10.276;2022-11-12T05:13:51;6.60;;;5.80;;
11143;SDS011;5626;44.730;10.276;2022-11-12T05:16:38;6.23;;;5.50;;
11143;SDS011;5626;44.730;10.276;2022-11-12T05:19:28;6.83;;;5.70;;
11143;SDS011;5626;44.730;10.276;2022-11-12T05:22:16;5.50;;;5.00;;
11143;SDS011;5626;44.730;10.276;2022-11-12T05:25:18;5.43;;;4.93;;
11143;SDS011;5626;44.730;10.276;2022-11-12T05:28:06;5.63;;;5.10;;
11143;SDS011;5626;44.730;10.276;2022-11-12T05:30:55;5.40;;;4.90;;
11143;SDS011;5626;44.730;10.276;2022-11-12T05:33:43;5.53;;;5.03;;
11143;SDS011;5626;44.730;10.276;2022-11-12T05:36:32;6.17;;;5.57;;
11143;SDS011;5626;44.730;10.276;2022-11-12T05:39:20;5.53;;;5.03;;
11143;SDS011;5626;44.730;10.276;2022-11-12T05:42:08;5.93;;;5.37;;
11143;SDS011;5626;44.730;10.276;2022-11-12T05:44:57;6.70;;;4.90;;
11143;SDS011;5626;44.730;10.276;2022-11-12T05:47:45;5.63;;;4.80;;
11143;SDS011;5626;44.730;10.276;2022-11-12T05:50:34;5.50;;;5.00;;
11143;SDS011;5626;44.730;10.276;2022-11-12T05:53:26;5.43;;;4.93;;
11143;SDS011;5626;44.730;10.276;2022-11-12T05:56:14;5.30;;;4.80;;
11143;SDS011;5626;44.730;10.276;2022-11-12T05:59:03;5.27;;;4.80;;
11143;SDS011;5626;44.730;10.276;2022-11-12T06:01:52;4.80;;;4.07;;
11143;SDS011;5626;44.730;10.276;2022-11-12T06:04:40;5.17;;;4.67;;
11143;SDS011;5626;44.730;10.276;2022-11-12T06:07:28;4.93;;;4.40;;
11143;SDS011;5626;44.730;10.276;2022-11-12T06:10:17;4.97;;;4.43;;
11143;SDS011;5626;44.730;10.276;2022-11-12T06:13:06;5.33;;;4.80;;
11143;SDS011;5626;44.730;10.276;2022-11-12T06:15:54;4.83;;;4.43;;
11143;SDS011;5626;44.730;10.276;2022-11-12T06:18:42;5.67;;;4.50;;
11143;SDS011;5626;44.730;10.276;2022-11-12T06:21:30;5.27;;;4.30;;
11143;SDS011;5626;44.730;10.276;2022-11-12T06:24:18;4.83;;;4.00;;
11143;SDS011;5626;44.730;10.276;2022-11-12T06:27:08;4.23;;;3.93;;
11143;SDS011;5626;44.730;10.276;2022-11-12T06:29:56;6.50;;;4.40;;
11143;SDS011;5626;44.730;10.276;2022-11-12T06:32:44;6.17;;;5.20;;
11143;SDS011;5626;44.730;10.276;2022-11-12T06:35:33;6.30;;;5.70;;
11143;SDS011;5626;44.730;10.276;2022-11-12T06:38:23;6.23;;;5.73;;
11143;SDS011;5626;44.730;10.276;2022-11-12T06:41:12;5.03;;;4.40;;
11143;SDS011;5626;44.730;10.276;2022-11-12T06:44:03;4.97;;;4.47;;
11143;SDS011;5626;44.730;10.276;2022-11-12T06:46:51;5.77;;;4.77;;
11143;SDS011;5626;44.730;10.276;2022-11-12T06:49:40;5.23;;;4.50;;
11143;SDS011;5626;44.730;10.276;2022-11-12T06:52:28;7.47;;;4.73;;
11143;SDS011;5626;44.730;10.276;2022-11-12T06:55:16;8.27;;;4.83;;
11143;SDS011;5626;44.730;10.276;2022-11-12T06:58:05;5.03;;;4.60;;
11143;SDS011;5626;44.730;10.276;2022-11-12T07:00:54;5.10;;;4.60;;
11143;SDS011;5626;44.730;10.276;2022-11-12T07:03:42;5.47;;;4.77;;
11143;SDS011;5626;44.730;10.276;2022-11-12T07:06:32;4.73;;;4.33;;
11143;SDS011;5626;44.730;10.276;2022-11-12T07:09:20;5.70;;;4.50;;
11143;SDS011;5626;44.730;10.276;2022-11-12T07:12:08;5.83;;;5.30;;
11143;SDS011;5626;44.730;10.276;2022-11-12T07:14:56;17.50;;;16.30;;
11143;SDS011;5626;44.730;10.276;2022-11-12T07:17:46;12.27;;;11.40;;
11143;SDS011;5626;44.730;10.276;2022-11-12T07:20:34;8.30;;;7.70;;
11143;SDS011;5626;44.730;10.276;2022-11-12T07:23:22;6.23;;;5.50;;
11143;SDS011;5626;44.730;10.276;2022-11-12T07:26:12;4.80;;;4.00;;
11143;SDS011;5626;44.730;10.276;2022-11-12T07:29:01;4.47;;;4.07;;
11143;SDS011;5626;44.730;10.276;2022-11-12T07:31:49;5.70;;;5.13;;
11143;SDS011;5626;44.730;10.276;2022-11-12T07:34:39;5.50;;;5.00;;
11143;SDS011;5626;44.730;10.276;2022-11-12T07:37:27;6.20;;;5.60;;
11143;SDS011;5626;44.730;10.276;2022-11-12T07:40:15;6.60;;;4.70;;
11143;SDS011;5626;44.730;10.276;2022-11-12T07:43:03;5.17;;;4.40;;
11143;SDS011;5626;44.730;10.276;2022-11-12T07:45:51;6.17;;;4.73;;
11143;SDS011;5626;44.730;10.276;2022-11-12T07:48:43;10.80;;;8.23;;
11143;SDS011;5626;44.730;10.276;2022-11-12T07:51:33;20.47;;;14.47;;
11143;SDS011;5626;44.730;10.276;2022-11-12T07:54:21;14.53;;;11.10;;
11143;SDS011;5626;44.730;10.276;2022-11-12T07:57:09;7.10;;;6.33;;
11143;SDS011;5626;44.730;10.276;2022-11-12T07:59:57;8.97;;;6.50;;
11143;SDS011;5626;44.730;10.276;2022-11-12T08:02:45;6.50;;;5.90;;
11143;SDS011;5626;44.730;10.276;2022-11-12T08:05:33;9.63;;;7.70;;
11143;SDS011;5626;44.730;10.276;2022-11-12T08:08:22;9.33;;;8.30;;
11143;SDS011;5626;44.730;10.276;2022-11-12T08:11:10;8.33;;;7.53;;
11143;SDS011;5626;44.730;10.276;2022-11-12T08:13:58;6.60;;;6.00;;
11143;SDS011;5626;44.730;10.276;2022-11-12T08:16:47;6.50;;;5.30;;
11143;SDS011;5626;44.730;10.276;2022-11-12T08:19:35;6.47;;;5.43;;
11143;SDS011;5626;44.730;10.276;2022-11-12T08:22:23;7.67;;;5.83;;
11143;SDS011;5626;44.730;10.276;2022-11-12T08:25:12;6.97;;;6.20;;
11143;SDS011;5626;44.730;10.276;2022-11-12T08:28:01;7.37;;;6.00;;
11143;SDS011;5626;44.730;10.276;2022-11-12T08:30:49;11.50;;;6.43;;
11143;SDS011;5626;44.730;10.276;2022-11-12T08:33:37;6.47;;;4.93;;
11143;SDS011;5626;44.730;10.276;2022-11-12T08:36:25;9.17;;;4.80;;
11143;SDS011;5626;44.730;10.276;2022-11-12T08:39:14;6.37;;;5.37;;
11143;SDS011;5626;44.730;10.276;2022-11-12T08:42:04;7.73;;;4.47;;
11143;SDS011;5626;44.730;10.276;2022-11-12T08:44:52;4.73;;;4.33;;
11143;SDS011;5626;44.730;10.276;2022-11-12T08:47:40;4.80;;;4.00;;
11143;SDS011;5626;44.730;10.276;2022-11-12T08:50:29;5.30;;;3.83;;
11143;SDS011;5626;44.730;10.276;2022-11-12T08:53:17;4.80;;;3.80;;
11143;SDS011;5626;44.730;10.276;2022-11-12T08:56:07;9.83;;;4.60;;
11143;SDS011;5626;44.730;10.276;2022-11-12T08:58:56;8.17;;;3.53;;
11143;SDS011;5626;44.730;10.276;2022-11-12T09:01:45;6.80;;;4.00;;
11143;SDS011;5626;44.730;10.276;2022-11-12T09:04:34;3.63;;;3.33;;
11143;SDS011;5626;44.730;10.276;2022-11-12T09:07:21;4.27;;;3.93;;
11143;SDS011;5626;44.730;10.276;2022-11-12T09:10:29;4.27;;;3.70;;
11143;SDS011;5626;44.730;10.276;2022-11-12T09:13:18;6.83;;;4.10;;
11143;SDS011;5626;44.730;10.276;2022-11-12T09:16:09;3.40;;;3.10;;
11143;SDS011;5626;44.730;10.276;2022-11-12T09:18:57;3.10;;;2.90;;
11143;SDS011;5626;44.730;10.276;2022-11-12T09:21:45;4.50;;;2.90;;
11143;SDS011;5626;44.730;10.276;2022-11-12T09:24:33;3.40;;;2.80;;
11143;SDS011;5626;44.730;10.276;2022-11-12T09:27:22;3.03;;;2.73;;
11143;SDS011;5626;44.730;10.276;2022-11-12T09:30:12;3.67;;;2.67;;
11143;SDS011;5626;44.730;10.276;2022-11-12T09:33:02;3.93;;;2.80;;
11143;SDS011;5626;44.730;10.276;2022-11-12T09:35:50;4.27;;;3.00;;
11143;SDS011;5626;44.730;10.276;2022-11-12T09:38:39;3.00;;;2.80;;
11143;SDS011;5626;44.730;10.276;2022-11-12T09:41:31;3.73;;;3.30;;
11143;SDS011;5626;44.730;10.276;2022-11-12T09:44:23;7.20;;;3.10;;
11143;SDS011;5626;44.730;10.276;2022-11-12T09:47:13;3.43;;;2.90;;
11143;SDS011;5626;44.730;10.276;2022-11-12T09:50:17;4.67;;;3.10;;
11143;SDS011;5626;44.730;10.276;2022-11-12T09:53:10;4.53;;;2.73;;
11143;SDS011;5626;44.730;10.276;2022-11-12T09:56:04;2.80;;;2.60;;
11143;SDS011;5626;44.730;10.276;2022-11-12T09:58:53;2.97;;;2.78;;
11143;SDS011;5626;44.730;10.276;2022-11-12T10:01:48;3.33;;;2.83;;
11143;SDS011;5626;44.730;10.276;2022-11-12T10:11:15;3.15;;;2.17;;
11143;SDS011;5626;44.730;10.276;2022-11-12T10:14:50;4.68;;;2.78;;
11143;SDS011;5626;44.730;10.276;2022-11-12T10:18:12;2.60;;;2.40;;
11143;SDS011;5626;44.730;10.276;2022-11-12T10:21:07;3.03;;;2.47;;
11143;SDS011;5626;44.730;10.276;2022-11-12T10:24:06;2.47;;;2.25;;
11143;SDS011;5626;44.730;10.276;2022-11-12T10:26:56;2.83;;;2.30;;
11143;SDS011;5626;44.730;10.276;2022-11-12T10:29:46;3.13;;;2.78;;
11143;SDS011;5626;44.730;10.276;2022-11-12T10:32:40;3.80;;;2.80;;
11143;SDS011;5626;44.730;10.276;2022-11-12T10:35:30;4.03;;;3.70;;
11143;SDS011;5626;44.730;10.276;2022-11-12T10:38:19;3.92;;;3.60;;
11143;SDS011;5626;44.730;10.276;2022-11-12T10:41:18;4.68;;;3.95;;
11143;SDS011;5626;44.730;10.276;2022-11-12T10:44:13;4.43;;;4.03;;
11143;SDS011;5626;44.730;10.276;2022-11-12T10:47:18;5.68;;;4.57;;
11143;SDS011;5626;44.730;10.276;2022-11-12T10:50:19;8.82;;;4.80;;
11143;SDS011;5626;44.730;10.276;2022-11-12T10:53:09;5.40;;;4.90;;
11143;SDS011;5626;44.730;10.276;2022-11-12T10:55:58;5.50;;;4.95;;
11143;SDS011;5626;44.730;10.276;2022-11-12T10:59:01;5.65;;;5.05;;
11143;SDS011;5626;44.730;10.276;2022-11-12T11:01:57;5.70;;;5.10;;
11143;SDS011;5626;44.730;10.276;2022-11-12T11:04:47;9.02;;;5.15;;
11143;SDS011;5626;44.730;10.276;2022-11-12T11:07:35;7.00;;;6.30;;
11143;SDS011;5626;44.730;10.276;2022-11-12T11:10:24;7.40;;;6.70;;
11143;SDS011;5626;44.730;10.276;2022-11-12T11:13:16;9.73;;;7.43;;
11143;SDS011;5626;44.730;10.276;2022-11-12T11:16:14;7.93;;;7.13;;
11143;SDS011;5626;44.730;10.276;2022-11-12T11:19:04;8.80;;;7.25;;
11143;SDS011;5626;44.730;10.276;2022-11-12T11:21:56;11.18;;;7.80;;
11143;SDS011;5626;44.730;10.276;2022-11-12T11:25:03;8.48;;;7.57;;
11143;SDS011;5626;44.730;10.276;2022-11-12T11:28:03;8.48;;;7.68;;
11143;SDS011;5626;44.730;10.276;2022-11-12T11:31:01;9.13;;;8.15;;
11143;SDS011;5626;44.730;10.276;2022-11-12T11:34:06;9.43;;;8.32;;
11143;SDS011;5626;44.730;10.276;2022-11-12T11:37:05;9.07;;;8.15;;
11143;SDS011;5626;44.730;10.276;2022-11-12T11:40:07;9.05;;;8.13;;
11143;SDS011;5626;44.730;10.276;2022-11-12T11:43:04;9.85;;;8.60;;
11143;SDS011;5626;44.730;10.276;2022-11-12T11:46:10;10.32;;;9.18;;
11143;SDS011;5626;44.730;10.276;2022-11-12T11:49:18;10.60;;;9.13;;
11143;SDS011;5626;44.730;10.276;2022-11-12T11:52:32;11.25;;;10.05;;
11143;SDS011;5626;44.730;10.276;2022-11-12T11:55:34;11.40;;;9.55;;
11143;SDS011;5626;44.730;10.276;2022-11-12T11:58:49;13.88;;;10.68;;
11143;SDS011;5626;44.730;10.276;2022-11-12T12:02:04;11.38;;;9.73;;
11143;SDS011;5626;44.730;10.276;2022-11-12T12:05:16;11.32;;;10.20;;
11143;SDS011;5626;44.730;10.276;2022-11-12T12:08:16;11.32;;;10.02;;
11143;SDS011;5626;44.730;10.276;2022-11-12T12:11:10;11.25;;;9.45;;
11143;SDS011;5626;44.730;10.276;2022-11-12T12:14:09;10.80;;;9.38;;
11143;SDS011;5626;44.730;10.276;2022-11-12T12:17:07;10.35;;;8.85;;
11143;SDS011;5626;44.730;10.276;2022-11-12T12:20:04;9.57;;;8.65;;
11143;SDS011;5626;44.730;10.276;2022-11-12T12:23:09;9.55;;;8.50;;
11143;SDS011;5626;44.730;10.276;2022-11-12T12:26:06;9.55;;;8.65;;
11143;SDS011;5626;44.730;10.276;2022-11-12T12:29:00;10.65;;;9.40;;
11143;SDS011;5626;44.730;10.276;2022-11-12T12:31:56;9.60;;;8.63;;
11143;SDS011;5626;44.730;10.276;2022-11-12T12:34:50;10.15;;;8.82;;
11143;SDS011;5626;44.730;10.276;2022-11-12T12:37:45;10.10;;;9.10;;
11143;SDS011;5626;44.730;10.276;2022-11-12T12:40:40;9.23;;;8.30;;
11143;SDS011;5626;44.730;10.276;2022-11-12T12:43:34;9.35;;;8.40;;
11143;SDS011;5626;44.730;10.276;2022-11-12T12:46:28;9.15;;;8.32;;
11143;SDS011;5626;44.730;10.276;2022-11-12T12:49:22;9.95;;;9.00;;
11143;SDS011;5626;44.730;10.276;2022-11-12T12:52:17;10.43;;;9.23;;
11143;SDS011;5626;44.730;10.276;2022-11-12T12:55:14;10.00;;;9.07;;
11143;SDS011;5626;44.730;10.276;2022-11-12T12:58:27;9.60;;;8.70;;
11143;SDS011;5626;44.730;10.276;2022-11-12T13:01:26;10.13;;;9.20;;
11143;SDS011;5626;44.730;10.276;2022-11-12T13:04:17;11.18;;;9.65;;
11143;SDS011;5626;44.730;10.276;2022-11-12T13:07:39;12.93;;;11.73;;
11143;SDS011;5626;44.730;10.276;2022-11-12T13:13:41;11.82;;;9.65;;
11143;SDS011;5626;44.730;10.276;2022-11-12T13:19:46;10.98;;;9.35;;
11143;SDS011;5626;44.730;10.276;2022-11-12T13:22:58;12.90;;;11.65;;
11143;SDS011;5626;44.730;10.276;2022-11-12T13:25:47;10.70;;;9.50;;
11143;SDS011;5626;44.730;10.276;2022-11-12T13:28:36;10.95;;;9.93;;
11143;SDS011;5626;44.730;10.276;2022-11-12T13:38:21;12.23;;;10.98;;
11143;SDS011;5626;44.730;10.276;2022-11-12T13:41:11;12.70;;;11.40;;
11143;SDS011;5626;44.730;10.276;2022-11-12T13:44:06;12.05;;;10.85;;
11143;SDS011;5626;44.730;10.276;2022-11-12T13:47:00;12.02;;;10.82;;
11143;SDS011;5626;44.730;10.276;2022-11-12T13:49:48;13.55;;;10.50;;
11143;SDS011;5626;44.730;10.276;2022-11-12T13:52:37;12.65;;;11.38;;
11143;SDS011;5626;44.730;10.276;2022-11-12T13:55:26;13.80;;;10.95;;
11143;SDS011;5626;44.730;10.276;2022-11-12T13:58:17;11.73;;;10.52;;
11143;SDS011;5626;44.730;10.276;2022-11-12T14:01:09;12.32;;;11.02;;
11143;SDS011;5626;44.730;10.276;2022-11-12T14:03:58;11.55;;;10.55;;
11143;SDS011;5626;44.730;10.276;2022-11-12T14:06:48;12.38;;;11.18;;
11143;SDS011;5626;44.730;10.276;2022-11-12T14:09:44;12.85;;;11.55;;
11143;SDS011;5626;44.730;10.276;2022-11-12T14:12:53;21.65;;;12.68;;
11143;SDS011;5626;44.730;10.276;2022-11-12T14:15:58;16.05;;;11.60;;
11143;SDS011;5626;44.730;10.276;2022-11-12T14:22:36;13.63;;;12.18;;
11143;SDS011;5626;44.730;10.276;2022-11-12T14:25:26;14.57;;;13.07;;
11143;SDS011;5626;44.730;10.276;2022-11-12T14:28:26;14.45;;;12.57;;
11143;SDS011;5626;44.730;10.276;2022-11-12T14:31:19;15.30;;;13.73;;
11143;SDS011;5626;44.730;10.276;2022-11-12T14:34:20;14.82;;;13.00;;
11143;SDS011;5626;44.730;10.276;2022-11-12T14:37:18;18.73;;;14.68;;
11143;SDS011;5626;44.730;10.276;2022-11-12T14:40:23;16.63;;;15.02;;
11143;SDS011;5626;44.730;10.276;2022-11-12T14:43:22;19.45;;;16.88;;
11143;SDS011;5626;44.730;10.276;2022-11-12T14:46:22;16.50;;;14.75;;
11143;SDS011;5626;44.730;10.276;2022-11-12T14:49:14;17.73;;;15.43;;
11143;SDS011;5626;44.730;10.276;2022-11-12T14:52:06;17.90;;;16.02;;
11143;SDS011;5626;44.730;10.276;2022-11-12T14:54:59;17.13;;;15.43;;
11143;SDS011;5626;44.730;10.276;2022-11-12T14:57:54;20.67;;;16.50;;
11143;SDS011;5626;44.730;10.276;2022-11-12T15:00:44;18.15;;;16.25;;
11143;SDS011;5626;44.730;10.276;2022-11-12T15:03:35;21.10;;;18.17;;
11143;SDS011;5626;44.730;10.276;2022-11-12T15:06:27;19.17;;;16.73;;
11143;SDS011;5626;44.730;10.276;2022-11-12T15:09:16;20.20;;;16.55;;
11143;SDS011;5626;44.730;10.276;2022-11-12T15:12:07;28.42;;;22.70;;
11143;SDS011;5626;44.730;10.276;2022-11-12T15:15:03;18.58;;;15.32;;
11143;SDS011;5626;44.730;10.276;2022-11-12T15:17:55;29.95;;;18.50;;
11143;SDS011;5626;44.730;10.276;2022-11-12T15:20:59;49.70;;;24.08;;
11143;SDS011;5626;44.730;10.276;2022-11-12T15:23:54;26.52;;;19.08;;
11143;SDS011;5626;44.730;10.276;2022-11-12T15:26:48;21.15;;;17.85;;
11143;SDS011;5626;44.730;10.276;2022-11-12T15:29:36;28.95;;;19.83;;
11143;SDS011;5626;44.730;10.276;2022-11-12T15:32:32;26.75;;;19.70;;
11143;SDS011;5626;44.730;10.276;2022-11-12T15:35:33;47.90;;;22.23;;
11143;SDS011;5626;44.730;10.276;2022-11-12T15:38:25;20.17;;;18.08;;
11143;SDS011;5626;44.730;10.276;2022-11-12T15:41:21;21.13;;;17.42;;
11143;SDS011;5626;44.730;10.276;2022-11-12T15:44:11;21.25;;;17.88;;
11143;SDS011;5626;44.730;10.276;2022-11-12T15:46:59;24.38;;;17.83;;
11143;SDS011;5626;44.730;10.276;2022-11-12T15:49:49;22.25;;;17.48;;
11143;SDS011;5626;44.730;10.276;2022-11-12T15:52:38;21.05;;;17.35;;
11143;SDS011;5626;44.730;10.276;2022-11-12T15:55:28;22.45;;;17.65;;
11143;SDS011;5626;44.730;10.276;2022-11-12T15:58:16;20.57;;;17.07;;
11143;SDS011;5626;44.730;10.276;2022-11-12T16:01:06;22.80;;;17.63;;
11143;SDS011;5626;44.730;10.276;2022-11-12T16:03:57;23.30;;;19.25;;
11143;SDS011;5626;44.730;10.276;2022-11-12T16:06:46;23.50;;;18.10;;
11143;SDS011;5626;44.730;10.276;2022-11-12T16:09:34;27.20;;;19.90;;
11143;SDS011;5626;44.730;10.276;2022-11-12T16:12:24;23.80;;;18.35;;
11143;SDS011;5626;44.730;10.276;2022-11-12T16:15:14;33.58;;;19.23;;
11143;SDS011;5626;44.730;10.276;2022-11-12T16:18:03;31.23;;;19.13;;
11143;SDS011;5626;44.730;10.276;2022-11-12T16:20:52;26.17;;;19.13;;
11143;SDS011;5626;44.730;10.276;2022-11-12T16:23:40;26.17;;;19.70;;
11143;SDS011;5626;44.730;10.276;2022-11-12T16:26:28;25.30;;;19.27;;
11143;SDS011;5626;44.730;10.276;2022-11-12T16:29:20;24.50;;;20.77;;
11143;SDS011;5626;44.730;10.276;2022-11-12T16:32:10;27.60;;;23.67;;
11143;SDS011;5626;44.730;10.276;2022-11-12T16:35:00;24.93;;;21.03;;
11143;SDS011;5626;44.730;10.276;2022-11-12T16:37:48;31.27;;;26.37;;
11143;SDS011;5626;44.730;10.276;2022-11-12T16:40:39;38.87;;;34.03;;
11143;SDS011;5626;44.730;10.276;2022-11-12T16:43:28;24.13;;;21.53;;
11143;SDS011;5626;44.730;10.276;2022-11-12T16:46:20;28.17;;;21.53;;
11143;SDS011;5626;44.730;10.276;2022-11-12T16:49:12;23.80;;;20.90;;
11143;SDS011;5626;44.730;10.276;2022-11-12T16:52:01;24.57;;;20.73;;
11143;SDS011;5626;44.730;10.276;2022-11-12T16:54:49;20.83;;;18.60;;
11143;SDS011;5626;44.730;10.276;2022-11-12T16:57:37;25.17;;;20.27;;
11143;SDS011;5626;44.730;10.276;2022-11-12T17:00:27;23.13;;;19.40;;
11143;SDS011;5626;44.730;10.276;2022-11-12T17:03:22;25.57;;;19.00;;
11143;SDS011;5626;44.730;10.276;2022-11-12T17:06:22;24.70;;;20.00;;
11143;SDS011;5626;44.730;10.276;2022-11-12T17:09:18;23.30;;;19.70;;
11143;SDS011;5626;44.730;10.276;2022-11-12T17:12:07;26.53;;;20.60;;
11143;SDS011;5626;44.730;10.276;2022-11-12T17:14:56;25.00;;;20.03;;
11143;SDS011;5626;44.730;10.276;2022-11-12T17:17:44;28.53;;;20.40;;
11143;SDS011;5626;44.730;10.276;2022-11-12T17:20:34;24.20;;;20.87;;
11143;SDS011;5626;44.730;10.276;2022-11-12T17:23:23;26.70;;;20.60;;
11143;SDS011;5626;44.730;10.276;2022-11-12T17:26:12;28.93;;;23.40;;
11143;SDS011;5626;44.730;10.276;2022-11-12T17:29:05;31.53;;;25.47;;
11143;SDS011;5626;44.730;10.276;2022-11-12T17:31:54;30.73;;;24.90;;
11143;SDS011;5626;44.730;10.276;2022-11-12T17:34:42;30.33;;;24.50;;
11143;SDS011;5626;44.730;10.276;2022-11-12T17:37:32;33.23;;;26.30;;
11143;SDS011;5626;44.730;10.276;2022-11-12T17:40:20;30.13;;;26.47;;
11143;SDS011;5626;44.730;10.276;2022-11-12T17:43:09;27.53;;;23.97;;
11143;SDS011;5626;44.730;10.276;2022-11-12T17:45:57;28.93;;;23.60;;
11143;SDS011;5626;44.730;10.276;2022-11-12T17:48:46;27.93;;;22.17;;
11143;SDS011;5626;44.730;10.276;2022-11-12T17:51:35;29.33;;;23.73;;
11143;SDS011;5626;44.730;10.276;2022-11-12T17:54:25;27.20;;;22.93;;
11143;SDS011;5626;44.730;10.276;2022-11-12T17:57:14;21.43;;;19.13;;
11143;SDS011;5626;44.730;10.276;2022-11-12T18:00:02;22.13;;;18.67;;
11143;SDS011;5626;44.730;10.276;2022-11-12T18:02:53;23.93;;;20.30;;
11143;SDS011;5626;44.730;10.276;2022-11-12T18:05:42;23.67;;;19.83;;
11143;SDS011;5626;44.730;10.276;2022-11-12T18:08:42;28.63;;;22.67;;
11143;SDS011;5626;44.730;10.276;2022-11-12T18:11:39;31.60;;;27.97;;
11143;SDS011;5626;44.730;10.276;2022-11-12T18:14:29;33.17;;;26.03;;
11143;SDS011;5626;44.730;10.276;2022-11-12T18:17:18;42.93;;;33.97;;
11143;SDS011;5626;44.730;10.276;2022-11-12T18:20:06;32.10;;;27.43;;
11143;SDS011;5626;44.730;10.276;2022-11-12T18:22:56;29.37;;;23.20;;
11143;SDS011;5626;44.730;10.276;2022-11-12T18:25:44;27.03;;;21.60;;
11143;SDS011;5626;44.730;10.276;2022-11-12T18:28:34;26.13;;;19.50;;
11143;SDS011;5626;44.730;10.276;2022-11-12T18:31:23;26.70;;;20.57;;
11143;SDS011;5626;44.730;10.276;2022-11-12T18:34:13;17.63;;;14.83;;
11143;SDS011;5626;44.730;10.276;2022-11-12T18:37:01;19.27;;;16.83;;
11143;SDS011;5626;44.730;10.276;2022-11-12T18:39:50;19.20;;;14.93;;
11143;SDS011;5626;44.730;10.276;2022-11-12T18:42:38;17.40;;;15.60;;
11143;SDS011;5626;44.730;10.276;2022-11-12T18:45:28;18.27;;;15.33;;
11143;SDS011;5626;44.730;10.276;2022-11-12T18:48:16;17.33;;;14.17;;
11143;SDS011;5626;44.730;10.276;2022-11-12T18:51:04;12.03;;;10.30;;
11143;SDS011;5626;44.730;10.276;2022-11-12T18:53:54;9.73;;;8.73;;
11143;SDS011;5626;44.730;10.276;2022-11-12T18:56:42;9.30;;;8.33;;
11143;SDS011;5626;44.730;10.276;2022-11-12T18:59:31;10.10;;;9.10;;
11143;SDS011;5626;44.730;10.276;2022-11-12T19:02:20;8.97;;;8.00;;
11143;SDS011;5626;44.730;10.276;2022-11-12T19:05:08;7.50;;;6.80;;
11143;SDS011;5626;44.730;10.276;2022-11-12T19:07:57;17.57;;;14.83;;
11143;SDS011;5626;44.730;10.276;2022-11-12T19:10:45;25.73;;;16.43;;
11143;SDS011;5626;44.730;10.276;2022-11-12T19:13:34;22.80;;;14.77;;
11143;SDS011;5626;44.730;10.276;2022-11-12T19:16:23;11.27;;;10.00;;
11143;SDS011;5626;44.730;10.276;2022-11-12T19:19:13;27.33;;;22.60;;
11143;SDS011;5626;44.730;10.276;2022-11-12T19:22:01;36.10;;;32.17;;
11143;SDS011;5626;44.730;10.276;2022-11-12T19:24:49;44.40;;;40.10;;
11143;SDS011;5626;44.730;10.276;2022-11-12T19:27:38;20.10;;;18.13;;
11143;SDS011;5626;44.730;10.276;2022-11-12T19:30:26;17.43;;;15.70;;
11143;SDS011;5626;44.730;10.276;2022-11-12T19:33:14;13.20;;;11.90;;
11143;SDS011;5626;44.730;10.276;2022-11-12T19:36:06;11.67;;;10.50;;
11143;SDS011;5626;44.730;10.276;2022-11-12T19:38:58;12.40;;;11.30;;
11143;SDS011;5626;44.730;10.276;2022-11-12T19:41:47;9.93;;;8.93;;
11143;SDS011;5626;44.730;10.276;2022-11-12T19:44:36;9.20;;;8.30;;
11143;SDS011;5626;44.730;10.276;2022-11-12T19:47:27;11.83;;;10.70;;
11143;SDS011;5626;44.730;10.276;2022-11-12T19:50:16;10.87;;;9.70;;
11143;SDS011;5626;44.730;10.276;2022-11-12T19:53:10;9.30;;;8.50;;
11143;SDS011;5626;44.730;10.276;2022-11-12T19:55:59;11.90;;;7.27;;
11143;SDS011;5626;44.730;10.276;2022-11-12T19:58:48;8.97;;;7.03;;
11143;SDS011;5626;44.730;10.276;2022-11-12T20:01:43;7.17;;;6.37;;
11143;SDS011;5626;44.730;10.276;2022-11-12T20:04:31;5.30;;;4.80;;
11143;SDS011;5626;44.730;10.276;2022-11-12T20:07:19;5.83;;;5.33;;
11143;SDS011;5626;44.730;10.276;2022-11-12T20:10:11;7.17;;;6.43;;
11143;SDS011;5626;44.730;10.276;2022-11-12T20:13:00;13.87;;;12.40;;
11143;SDS011;5626;44.730;10.276;2022-11-12T20:15:49;14.23;;;11.90;;
11143;SDS011;5626;44.730;10.276;2022-11-12T20:18:38;20.63;;;18.40;;
11143;SDS011;5626;44.730;10.276;2022-11-12T20:21:26;28.57;;;25.47;;
11143;SDS011;5626;44.730;10.276;2022-11-12T20:24:16;23.47;;;21.00;;
11143;SDS011;5626;44.730;10.276;2022-11-12T20:27:06;28.27;;;21.63;;
11143;SDS011;5626;44.730;10.276;2022-11-12T20:29:56;27.00;;;20.67;;
11143;SDS011;5626;44.730;10.276;2022-11-12T20:32:45;22.33;;;17.53;;
11143;SDS011;5626;44.730;10.276;2022-11-12T20:35:34;20.93;;;18.73;;
11143;SDS011;5626;44.730;10.276;2022-11-12T20:38:25;21.77;;;18.97;;
11143;SDS011;5626;44.730;10.276;2022-11-12T20:41:36;15.37;;;13.70;;
11143;SDS011;5626;44.730;10.276;2022-11-12T20:44:44;20.23;;;15.43;;
11143;SDS011;5626;44.730;10.276;2022-11-12T20:47:32;16.67;;;14.90;;
11143;SDS011;5626;44.730;10.276;2022-11-12T20:50:20;17.43;;;15.63;;
11143;SDS011;5626;44.730;10.276;2022-11-12T20:53:09;18.87;;;15.73;;
11143;SDS011;5626;44.730;10.276;2022-11-12T20:56:07;16.73;;;13.50;;
11143;SDS011;5626;44.730;10.276;2022-11-12T20:58:57;16.13;;;12.77;;
11143;SDS011;5626;44.730;10.276;2022-11-12T21:01:47;17.40;;;13.80;;
11143;SDS011;5626;44.730;10.276;2022-11-12T21:04:36;14.83;;;13.30;;
11143;SDS011;5626;44.730;10.276;2022-11-12T21:07:24;19.17;;;15.50;;
11143;SDS011;5626;44.730;10.276;2022-11-12T21:10:13;14.93;;;12.10;;
11143;SDS011;5626;44.730;10.276;2022-11-12T21:13:02;11.60;;;10.40;;
11143;SDS011;5626;44.730;10.276;2022-11-12T21:15:51;13.43;;;11.97;;
11143;SDS011;5626;44.730;10.276;2022-11-12T21:18:42;23.97;;;19.60;;
11143;SDS011;5626;44.730;10.276;2022-11-12T21:21:32;21.77;;;16.43;;
11143;SDS011;5626;44.730;10.276;2022-11-12T21:24:20;18.83;;;16.90;;
11143;SDS011;5626;44.730;10.276;2022-11-12T21:27:10;27.60;;;25.13;;
11143;SDS011;5626;44.730;10.276;2022-11-12T21:29:59;14.93;;;13.03;;
11143;SDS011;5626;44.730;10.276;2022-11-12T21:32:48;13.13;;;11.73;;
11143;SDS011;5626;44.730;10.276;2022-11-12T21:35:38;12.33;;;11.00;;
11143;SDS011;5626;44.730;10.276;2022-11-12T21:38:29;12.53;;;11.23;;
11143;SDS011;5626;44.730;10.276;2022-11-12T21:41:35;11.70;;;10.50;;
11143;SDS011;5626;44.730;10.276;2022-11-12T21:44:45;11.93;;;10.30;;
11143;SDS011;5626;44.730;10.276;2022-11-12T21:47:37;10.60;;;9.30;;
11143;SDS011;5626;44.730;10.276;2022-11-12T21:50:25;9.97;;;8.97;;
11143;SDS011;5626;44.730;10.276;2022-11-12T21:53:20;11.83;;;10.07;;
11143;SDS011;5626;44.730;10.276;2022-11-12T21:56:30;10.60;;;9.40;;
11143;SDS011;5626;44.730;10.276;2022-11-12T21:59:30;20.20;;;16.23;;
11143;SDS011;5626;44.730;10.276;2022-11-12T22:03:02;13.87;;;12.30;;
11143;SDS011;5626;44.730;10.276;2022-11-12T22:06:07;15.63;;;12.10;;
11143;SDS011;5626;44.730;10.276;2022-11-12T22:09:00;8.87;;;7.97;;
11143;SDS011;5626;44.730;10.276;2022-11-12T22:11:52;10.00;;;7.30;;
11143;SDS011;5626;44.730;10.276;2022-11-12T22:14:42;7.73;;;6.93;;
11143;SDS011;5626;44.730;10.276;2022-11-12T22:17:31;7.50;;;6.70;;
11143;SDS011;5626;44.730;10.276;2022-11-12T22:20:22;8.83;;;6.73;;
11143;SDS011;5626;44.730;10.276;2022-11-12T22:23:12;6.60;;;6.00;;
11143;SDS011;5626;44.730;10.276;2022-11-12T22:26:02;6.60;;;5.90;;